createdAt,value
2023-05-31T00:03:59.599Z,3.83
2023-05-31T00:06:26.289Z,3.45
2023-05-31T00:11:52.763Z,3.28
2023-05-31T00:14:21.908Z,3.25
2023-05-31T00:19:41.631Z,3.53
2023-05-31T00:25:25.736Z,3.55
2023-05-31T00:27:53.458Z,3.58
2023-05-31T00:30:44.701Z,3.40
2023-05-31T00:33:19.604Z,3.72
2023-05-31T00:35:47.208Z,3.50
2023-05-31T00:38:14.769Z,3.80
2023-05-31T00:40:41.476Z,3.70
2023-05-31T00:43:08.950Z,3.50
2023-05-31T00:45:35.938Z,3.70
2023-05-31T00:48:06.564Z,3.63
2023-05-31T00:53:06.578Z,3.70
2023-05-31T00:55:33.610Z,3.78
2023-05-31T00:58:02.043Z,3.83
2023-05-31T01:00:32.263Z,4.20
2023-05-31T01:03:02.499Z,3.75
2023-05-31T01:05:30.190Z,3.80
2023-05-31T01:08:07.908Z,4.18
2023-05-31T01:10:42.595Z,3.88
2023-05-31T01:13:35.840Z,4.07
2023-05-31T01:16:19.969Z,3.80
2023-05-31T01:18:56.687Z,3.75
2023-05-31T01:21:48.147Z,3.88
2023-05-31T01:24:47.690Z,4.00
2023-05-31T01:27:23.062Z,3.72
2023-05-31T01:29:51.762Z,4.47
2023-05-31T01:32:21.936Z,4.50
2023-05-31T01:34:50.976Z,3.97
2023-05-31T01:37:35.339Z,4.45
2023-05-31T01:40:05.594Z,4.15
2023-05-31T01:42:32.696Z,4.90
2023-05-31T01:47:42.907Z,4.85
2023-05-31T01:50:14.242Z,4.28
2023-05-31T01:52:44.547Z,4.80
2023-05-31T01:55:12.651Z,4.22
2023-05-31T01:57:44.069Z,4.80
2023-05-31T02:00:14.029Z,4.72
2023-05-31T02:05:58.599Z,4.40
2023-05-31T02:08:27.011Z,4.15
2023-05-31T02:10:55.391Z,4.65
2023-05-31T02:13:44.673Z,4.65
2023-05-31T02:16:13.612Z,4.82
2023-05-31T02:18:40.280Z,4.70
2023-05-31T02:23:48.844Z,5.10
2023-05-31T02:26:16.615Z,4.68
2023-05-31T02:28:43.477Z,5.53
2023-05-31T02:31:10.672Z,5.10
2023-05-31T02:33:41.041Z,5.25
2023-05-31T02:36:10.148Z,4.55
2023-05-31T02:41:17.637Z,5.13
2023-05-31T02:43:45.857Z,4.65
2023-05-31T02:46:13.728Z,4.50
2023-05-31T02:48:40.368Z,4.90
2023-05-31T02:51:09.596Z,4.82
2023-05-31T02:53:36.331Z,5.28
2023-05-31T02:56:10.232Z,4.70
2023-05-31T02:58:46.796Z,5.13
2023-05-31T03:01:20.821Z,5.13
2023-05-31T03:03:47.578Z,4.80
2023-05-31T03:06:18.881Z,5.07
2023-05-31T03:11:29.483Z,5.30
2023-05-31T03:13:57.315Z,4.63
2023-05-31T03:16:25.192Z,5.40
2023-05-31T03:18:56.390Z,4.97
2023-05-31T03:23:52.488Z,5.18
2023-05-31T03:26:22.872Z,5.57
2023-05-31T03:28:50.528Z,5.68
2023-05-31T03:31:20.178Z,5.03
2023-05-31T03:33:47.135Z,4.80
2023-05-31T03:36:15.993Z,5.82
2023-05-31T03:38:44.600Z,5.50
2023-05-31T03:41:24.150Z,5.38
2023-05-31T03:43:51.847Z,5.25
2023-05-31T03:46:20.257Z,4.90
2023-05-31T03:48:50.552Z,5.18
2023-05-31T03:51:24.826Z,4.90
2023-05-31T03:53:57.408Z,5.47
2023-05-31T03:56:25.658Z,5.05
2023-05-31T03:58:54.262Z,4.95
2023-05-31T04:01:25.638Z,5.10
2023-05-31T04:03:54.970Z,5.82
2023-05-31T04:06:30.035Z,4.97
2023-05-31T04:08:58.657Z,4.68
2023-05-31T04:11:25.730Z,4.85
2023-05-31T04:13:55.272Z,5.05
2023-05-31T04:16:22.776Z,5.07
2023-05-31T04:19:00.990Z,5.40
2023-05-31T04:21:27.981Z,5.32
2023-05-31T04:23:55.522Z,4.93
2023-05-31T04:26:24.285Z,5.05
2023-05-31T04:28:54.710Z,4.97
2023-05-31T04:31:35.176Z,4.80
2023-05-31T04:34:10.778Z,5.15
2023-05-31T04:36:41.312Z,4.72
2023-05-31T04:41:43.103Z,5.35
2023-05-31T04:44:13.316Z,5.68
2023-05-31T04:46:42.379Z,5.03
2023-05-31T04:49:09.324Z,5.10
2023-05-31T04:54:26.421Z,5.47
2023-05-31T04:57:01.845Z,5.32
2023-05-31T04:59:37.977Z,5.30
2023-05-31T05:02:04.981Z,4.85
2023-05-31T05:04:31.899Z,5.05
2023-05-31T05:07:01.748Z,5.10
2023-05-31T05:09:28.409Z,5.22
2023-05-31T05:11:57.002Z,4.47
2023-05-31T05:14:31.499Z,5.85
2023-05-31T05:16:59.112Z,5.68
2023-05-31T05:19:26.674Z,5.15
2023-05-31T05:21:57.376Z,5.53
2023-05-31T05:24:24.435Z,5.75
2023-05-31T05:26:54.351Z,5.32
2023-05-31T05:29:25.395Z,5.00
2023-05-31T05:31:55.087Z,4.70
2023-05-31T05:34:26.457Z,5.20
2023-05-31T05:36:58.013Z,5.10
2023-05-31T05:39:28.899Z,4.53
2023-05-31T05:44:44.038Z,4.38
2023-05-31T05:47:16.890Z,4.65
2023-05-31T05:49:46.746Z,4.50
2023-05-31T05:52:14.556Z,4.65
2023-05-31T05:54:42.092Z,4.10
2023-05-31T05:57:15.003Z,4.00
2023-05-31T06:05:10.478Z,4.78
2023-05-31T06:07:41.331Z,3.58
2023-05-31T06:12:53.537Z,4.45
2023-05-31T06:15:25.466Z,3.75
2023-05-31T06:18:01.185Z,4.15
2023-05-31T06:20:28.185Z,4.00
2023-05-31T06:23:04.634Z,4.18
2023-05-31T06:25:45.544Z,3.97
2023-05-31T06:28:17.780Z,3.83
2023-05-31T06:31:18.164Z,4.10
2023-05-31T06:36:27.048Z,3.70
2023-05-31T06:38:54.243Z,2.90
2023-05-31T06:44:03.559Z,2.90
2023-05-31T06:46:36.553Z,3.10
2023-05-31T06:51:58.104Z,3.30
2023-05-31T06:54:35.104Z,2.70
2023-05-31T06:59:44.472Z,2.80
2023-05-31T07:05:03.778Z,2.67
2023-05-31T07:07:31.128Z,2.83
2023-05-31T07:13:04.931Z,2.45
2023-05-31T07:27:21.838Z,2.38
2023-05-31T07:51:49.866Z,2.17
2023-05-31T07:57:09.928Z,2.75
2023-05-31T07:59:46.796Z,2.45
2023-05-31T08:02:22.311Z,2.30
2023-05-31T08:04:53.853Z,2.80
2023-05-31T08:10:26.142Z,2.63
2023-05-31T08:24:43.785Z,2.20
2023-05-31T08:41:03.700Z,2.10
2023-05-31T08:46:31.400Z,2.42
2023-05-31T08:49:21.956Z,1.85
2023-05-31T08:51:53.801Z,2.17
2023-05-31T08:54:34.238Z,1.83
2023-05-31T08:57:04.586Z,1.80
2023-05-31T08:59:33.772Z,1.92
2023-05-31T09:02:03.857Z,1.63
2023-05-31T09:04:39.265Z,1.77
2023-05-31T09:07:12.734Z,2.10
2023-05-31T09:09:39.753Z,1.67
2023-05-31T09:15:32.799Z,1.60
2023-05-31T09:18:30.442Z,1.60
2023-05-31T09:21:15.331Z,2.10
2023-05-31T09:23:55.656Z,1.77
2023-05-31T09:34:54.988Z,1.85
2023-05-31T09:46:42.059Z,1.77
2023-05-31T09:49:10.539Z,1.75
2023-05-31T09:52:12.230Z,1.70
2023-05-31T09:54:49.757Z,2.10
2023-05-31T09:57:48.894Z,1.90
2023-05-31T10:00:29.622Z,1.60
2023-05-31T10:02:56.583Z,1.67
2023-05-31T10:10:50.825Z,1.90
2023-05-31T10:16:07.630Z,1.70
2023-05-31T10:18:38.433Z,1.63
2023-05-31T10:21:25.689Z,1.63
2023-05-31T10:24:05.229Z,2.15
2023-05-31T10:26:50.598Z,1.60
2023-05-31T10:29:30.555Z,1.70
2023-05-31T10:32:11.239Z,1.88
2023-05-31T10:48:44.404Z,1.30
2023-05-31T10:51:14.052Z,1.80
2023-05-31T10:59:21.937Z,1.88
2023-05-31T11:02:05.300Z,1.50
2023-05-31T11:10:36.295Z,1.30
2023-05-31T11:24:59.333Z,1.70
2023-05-31T11:30:47.610Z,1.50
2023-05-31T11:38:49.138Z,1.75
2023-05-31T11:47:29.706Z,1.30
2023-05-31T11:53:15.521Z,1.40
2023-05-31T12:12:26.788Z,1.40
2023-05-31T12:26:47.615Z,1.42
2023-05-31T12:29:26.167Z,1.30
2023-05-31T12:32:08.613Z,1.33
2023-05-31T12:34:43.612Z,1.30
2023-05-31T12:43:48.472Z,1.20
2023-05-31T12:46:25.618Z,1.38
2023-05-31T12:51:43.736Z,1.55
2023-05-31T12:54:22.926Z,1.38
2023-05-31T12:56:49.593Z,1.40
2023-05-31T12:59:19.835Z,1.42
2023-05-31T13:01:56.119Z,1.58
2023-05-31T13:08:24.298Z,1.30
2023-05-31T13:10:53.146Z,1.50
2023-05-31T13:14:13.079Z,1.60
2023-05-31T13:16:40.695Z,1.92
2023-05-31T13:19:13.802Z,1.38
2023-05-31T13:21:53.566Z,1.27
2023-05-31T13:24:31.432Z,1.60
2023-05-31T13:29:39.646Z,1.30
2023-05-31T13:32:07.058Z,1.27
2023-05-31T13:34:34.040Z,1.48
2023-05-31T13:37:12.711Z,1.20
2023-05-31T13:39:40.329Z,1.50
2023-05-31T13:42:11.415Z,1.52
2023-05-31T13:44:43.959Z,1.45
2023-05-31T13:47:21.524Z,1.55
2023-05-31T13:55:23.551Z,1.90
2023-05-31T14:06:34.365Z,1.50
2023-05-31T14:11:41.326Z,1.27
2023-05-31T14:16:57.646Z,1.40
2023-05-31T14:19:47.105Z,1.63
2023-05-31T14:22:29.171Z,1.33
2023-05-31T14:24:58.928Z,1.55
2023-05-31T14:27:28.287Z,2.07
2023-05-31T14:29:55.363Z,1.35
2023-05-31T14:32:23.918Z,1.75
2023-05-31T14:35:00.969Z,1.77
2023-05-31T14:37:45.914Z,1.67
2023-05-31T14:43:16.436Z,1.65
2023-05-31T14:46:34.651Z,1.40
2023-05-31T14:49:20.423Z,1.60
2023-05-31T14:54:52.291Z,1.48
2023-05-31T14:58:24.787Z,1.38
2023-05-31T15:00:53.666Z,1.90
2023-05-31T15:03:24.346Z,1.67
2023-05-31T15:06:18.157Z,1.20
2023-05-31T15:08:46.223Z,1.52
2023-05-31T15:11:34.688Z,1.63
2023-05-31T15:14:09.094Z,1.40
2023-05-31T15:16:45.818Z,1.52
2023-05-31T15:19:14.754Z,1.58
2023-05-31T15:21:44.915Z,1.60
2023-05-31T15:26:40.496Z,1.33
2023-05-31T15:29:09.712Z,1.73
2023-05-31T15:31:40.038Z,1.60
2023-05-31T15:34:15.668Z,1.40
2023-05-31T15:36:43.610Z,1.55
2023-05-31T15:39:12.068Z,1.60
2023-05-31T15:41:39.870Z,1.83
2023-05-31T15:46:47.384Z,1.67
2023-05-31T15:52:06.324Z,1.70
2023-05-31T15:54:35.952Z,1.70
2023-05-31T15:57:02.984Z,1.63
2023-05-31T15:59:31.337Z,1.67
2023-05-31T16:02:03.062Z,1.98
2023-05-31T16:04:29.822Z,1.55
2023-05-31T16:06:59.921Z,1.70
2023-05-31T16:12:02.303Z,1.60
2023-05-31T16:14:39.863Z,2.05
2023-05-31T16:19:59.441Z,2.00
2023-05-31T16:22:48.592Z,1.83
2023-05-31T16:25:17.737Z,1.80
2023-05-31T16:27:49.537Z,1.70
2023-05-31T16:39:33.933Z,1.40
2023-05-31T16:42:33.712Z,1.90
2023-05-31T16:47:52.744Z,1.77
2023-05-31T16:50:23.191Z,1.50
2023-05-31T16:55:57.345Z,1.58
2023-05-31T16:58:31.598Z,1.70
2023-05-31T17:01:00.239Z,1.48
2023-05-31T17:06:31.496Z,1.70
2023-05-31T17:12:01.917Z,1.85
2023-05-31T17:20:17.444Z,2.05
2023-05-31T17:22:50.317Z,1.80
2023-05-31T17:25:19.879Z,1.90
2023-05-31T17:27:50.217Z,1.70
2023-05-31T17:30:25.404Z,1.80
2023-05-31T17:38:33.536Z,1.52
2023-05-31T17:41:11.619Z,1.92
2023-05-31T17:43:42.981Z,1.77
2023-05-31T17:46:12.906Z,1.75
2023-05-31T17:48:52.266Z,1.98
2023-05-31T17:56:55.517Z,1.90
2023-05-31T17:59:28.857Z,1.70
2023-05-31T18:02:21.479Z,1.77
2023-05-31T18:05:04.240Z,1.55
2023-05-31T18:07:33.230Z,1.60
2023-05-31T18:10:01.559Z,1.60
2023-05-31T18:12:32.174Z,2.10
2023-05-31T18:23:40.896Z,1.77
2023-05-31T18:28:50.297Z,1.65
2023-05-31T18:31:21.759Z,2.20
2023-05-31T18:33:54.043Z,1.80
2023-05-31T18:36:42.446Z,1.80
2023-05-31T18:39:18.209Z,1.80
2023-05-31T18:41:54.182Z,1.60
2023-05-31T18:44:24.095Z,1.90
2023-05-31T18:46:57.410Z,1.83
2023-05-31T18:50:32.914Z,1.73
2023-05-31T18:53:01.448Z,1.98
2023-05-31T18:55:39.008Z,1.77
2023-05-31T18:58:28.940Z,1.80
2023-05-31T19:00:57.824Z,1.90
2023-05-31T19:09:38.148Z,1.73
2023-05-31T19:18:09.844Z,1.85
2023-05-31T19:23:40.924Z,1.60
2023-05-31T19:31:55.992Z,1.90
2023-05-31T19:37:14.040Z,1.60
2023-05-31T19:50:59.468Z,1.90
2023-05-31T19:56:08.252Z,1.75
2023-05-31T19:58:39.608Z,2.10
2023-05-31T20:07:00.124Z,2.53
2023-05-31T20:51:52.682Z,2.30
2023-05-31T20:57:05.498Z,2.30
2023-05-31T20:59:39.730Z,2.38
2023-05-31T21:02:20.401Z,2.30
2023-05-31T21:10:16.324Z,2.05
2023-05-31T21:13:03.966Z,2.22
2023-05-31T21:18:26.199Z,1.95
2023-05-31T21:21:00.830Z,2.25
2023-05-31T21:34:23.589Z,2.60
2023-05-31T21:40:28.280Z,2.10
2023-05-31T21:43:00.886Z,2.58
2023-05-31T21:45:27.673Z,1.90
2023-05-31T21:47:58.824Z,2.20
2023-05-31T21:50:28.599Z,2.38
2023-05-31T21:52:59.143Z,2.33
2023-05-31T21:58:02.489Z,2.53
2023-05-31T22:00:34.351Z,2.80
2023-05-31T22:03:10.835Z,2.45
2023-05-31T22:05:51.550Z,2.42
2023-05-31T22:08:25.224Z,2.38
2023-05-31T22:10:54.557Z,2.25
2023-05-31T22:13:36.770Z,2.60
2023-05-31T22:16:09.074Z,2.03
2023-05-31T22:18:36.666Z,2.90
2023-05-31T22:26:42.810Z,2.30
2023-05-31T22:34:43.640Z,1.85
2023-05-31T22:37:34.764Z,2.15
2023-05-31T22:40:03.446Z,2.20
2023-05-31T22:48:18.371Z,2.13
2023-05-31T22:50:45.026Z,2.10
2023-05-31T22:53:14.280Z,2.17
2023-05-31T22:56:02.672Z,2.25
2023-05-31T22:58:30.140Z,2.20
2023-05-31T23:00:57.830Z,2.30
2023-05-31T23:03:24.697Z,2.40
2023-05-31T23:05:52.375Z,2.42
2023-05-31T23:08:24.065Z,1.92
2023-05-31T23:11:05.263Z,1.98
2023-05-31T23:13:37.384Z,1.70
2023-05-31T23:16:04.451Z,2.33
2023-05-31T23:18:33.623Z,2.00
2023-05-31T23:21:02.435Z,2.17
2023-05-31T23:23:32.062Z,2.40
2023-05-31T23:31:09.458Z,1.85
2023-05-31T23:33:38.117Z,2.05
2023-05-31T23:36:05.631Z,2.20
2023-05-31T23:38:34.673Z,2.17
2023-05-31T23:41:04.579Z,2.10
2023-05-31T23:43:32.079Z,1.98
2023-05-31T23:46:00.993Z,2.28
2023-05-31T23:48:28.874Z,2.60
2023-05-31T23:50:58.490Z,2.00
2023-05-31T23:53:26.478Z,1.93
2023-05-31T23:55:55.020Z,2.20
2023-05-31T23:58:22.046Z,2.22
